Time;durP1;ratioP1;P1;durP2;ratioP2;P2;SDS_P1;SDS_P2;PMS_P1;PMS_P2;Temp;Humidity;BMP_temperature;BMP_pressure;BME280_temperature;BME280_humidity;BME280_pressure;Samples;Min_cycle;Max_cycle;Signal;HPM_P1;HPM_P2
2023/02/02 00:00:52;;;;;;;21.80;6.60;;;;;;;5.00;100.00;99829.75;5039663;28;20096;-59
2023/02/02 00:03:17;;;;;;;32.22;6.70;;;;;;;4.97;100.00;99821.13;5041174;28;20032;-59
2023/02/02 00:05:50;;;;;;;17.60;6.63;;;;;;;5.05;100.00;99819.38;5043055;28;20021;-59
2023/02/02 00:08:16;;;;;;;19.75;6.43;;;;;;;5.16;100.00;99819.63;5040287;28;20116;-59
2023/02/02 00:10:42;;;;;;;22.77;5.95;;;;;;;5.24;100.00;99823.16;5044111;28;20108;-61
2023/02/02 00:13:07;;;;;;;16.20;6.43;;;;;;;5.15;100.00;99825.16;5045264;28;20100;-59
2023/02/02 00:15:33;;;;;;;19.92;6.10;;;;;;;5.10;100.00;99824.91;5048255;28;20033;-59
2023/02/02 00:17:58;;;;;;;17.10;6.10;;;;;;;5.04;100.00;99818.53;5039035;28;20025;-59
2023/02/02 00:20:24;;;;;;;24.13;6.03;;;;;;;5.06;100.00;99827.13;5045599;28;20037;-59
2023/02/02 00:22:49;;;;;;;19.73;6.35;;;;;;;5.06;100.00;99826.31;5045350;28;20040;-59
2023/02/02 00:25:14;;;;;;;24.58;6.00;;;;;;;5.02;100.00;99833.84;5044912;28;20028;-59
2023/02/02 00:27:40;;;;;;;13.68;6.00;;;;;;;5.04;100.00;99842.47;5041565;28;20033;-59
2023/02/02 00:30:06;;;;;;;15.52;5.97;;;;;;;5.04;100.00;99836.31;5050912;28;20036;-59
2023/02/02 00:32:31;;;;;;;18.33;6.22;;;;;;;4.98;100.00;99837.91;5038516;28;20033;-59
2023/02/02 00:34:57;;;;;;;15.50;6.28;;;;;;;4.95;100.00;99836.44;5042109;28;20032;-59
2023/02/02 00:37:22;;;;;;;27.30;6.68;;;;;;;5.02;100.00;99839.16;5048076;28;20289;-59
2023/02/02 00:39:48;;;;;;;29.75;7.15;;;;;;;5.01;100.00;99837.50;5041132;28;20387;-59
2023/02/02 00:42:13;;;;;;;23.70;6.70;;;;;;;4.98;100.00;99841.38;5039690;28;20087;-59
2023/02/02 00:47:23;;;;;;;22.80;7.43;;;;;;;4.95;100.00;99839.09;5043375;28;20112;-59
2023/02/02 00:49:48;;;;;;;25.98;7.68;;;;;;;5.01;100.00;99836.69;5053719;28;20510;-59
2023/02/02 00:52:13;;;;;;;19.08;6.30;;;;;;;5.09;100.00;99831.22;5051852;28;20260;-59
2023/02/02 00:54:39;;;;;;;28.83;8.02;;;;;;;5.08;100.00;99832.25;5045639;28;20072;-59
2023/02/02 00:57:04;;;;;;;23.92;7.22;;;;;;;5.08;100.00;99833.06;5049088;28;20036;-59
2023/02/02 00:59:30;;;;;;;21.10;6.60;;;;;;;5.07;100.00;99834.09;5050537;28;20031;-59
2023/02/02 01:01:55;;;;;;;25.52;7.35;;;;;;;5.11;100.00;99839.84;5038984;28;20578;-59
2023/02/02 01:04:21;;;;;;;24.90;9.13;;;;;;;5.17;100.00;99842.56;5048796;28;20074;-59
2023/02/02 01:06:46;;;;;;;30.50;8.65;;;;;;;5.26;100.00;99840.56;5042433;28;20029;-60
2023/02/02 01:09:11;;;;;;;29.25;8.90;;;;;;;5.31;100.00;99832.03;5037381;28;20045;-60
2023/02/02 01:11:37;;;;;;;22.90;8.50;;;;;;;5.29;100.00;99834.88;5034453;28;20515;-58
2023/02/02 01:14:02;;;;;;;40.20;9.13;;;;;;;5.37;100.00;99840.06;5045188;28;20423;-58
2023/02/02 01:16:28;;;;;;;29.23;9.15;;;;;;;5.45;100.00;99838.28;5041937;28;20107;-58
2023/02/02 01:18:53;;;;;;;28.35;9.25;;;;;;;5.46;100.00;99839.91;5041833;28;20519;-58
2023/02/02 01:21:19;;;;;;;39.38;9.35;;;;;;;5.43;100.00;99840.28;5048899;28;20036;-59
2023/02/02 01:23:44;;;;;;;32.08;8.52;;;;;;;5.47;100.00;99833.59;5048842;28;20025;-59
2023/02/02 01:26:10;;;;;;;50.95;10.18;;;;;;;5.47;100.00;99846.88;5056230;28;20032;-58
2023/02/02 01:28:36;;;;;;;23.83;8.60;;;;;;;5.51;100.00;99835.63;5046324;28;20037;-58
2023/02/02 01:31:13;;;;;;;42.20;9.50;;;;;;;5.55;100.00;99830.75;5038692;28;20025;-58
2023/02/02 01:33:39;;;;;;;32.35;9.98;;;;;;;5.61;100.00;99837.94;5048761;28;20498;-58
2023/02/02 01:36:11;;;;;;;31.58;9.68;;;;;;;5.52;100.00;99831.16;5048025;28;20025;-60
2023/02/02 01:38:36;;;;;;;27.40;8.70;;;;;;;5.51;100.00;99830.31;5035891;28;20031;-59
2023/02/02 01:41:03;;;;;;;27.52;8.73;;;;;;;5.53;100.00;99841.59;5041533;28;20017;-60
2023/02/02 01:43:40;;;;;;;28.13;9.25;;;;;;;5.59;100.00;99824.88;5045734;28;20051;-59
2023/02/02 01:46:11;;;;;;;33.50;9.00;;;;;;;5.56;100.00;99835.06;5049912;28;20400;-59
2023/02/02 01:48:37;;;;;;;30.13;8.75;;;;;;;5.56;100.00;99829.75;5043082;28;20033;-59
2023/02/02 01:51:07;;;;;;;25.85;8.45;;;;;;;5.53;100.00;99830.94;5033910;28;20121;-59
2023/02/02 01:53:33;;;;;;;20.15;7.15;;;;;;;5.46;100.00;99840.72;5069402;28;20127;-59
2023/02/02 01:55:58;;;;;;;25.65;7.90;;;;;;;5.49;100.00;99840.34;5036999;28;20445;-59
2023/02/02 01:58:33;;;;;;;21.40;7.75;;;;;;;5.54;100.00;99839.75;5049273;28;20017;-59
2023/02/02 02:00:58;;;;;;;28.88;7.47;;;;;;;5.49;100.00;99843.00;5036860;28;20024;-59
2023/02/02 02:03:25;;;;;;;25.02;8.38;;;;;;;5.59;100.00;99830.19;5048628;28;20529;-59
2023/02/02 02:05:53;;;;;;;34.72;8.15;;;;;;;5.53;100.00;99843.44;5039383;28;20029;-59
2023/02/02 02:08:21;;;;;;;24.05;7.55;;;;;;;5.47;100.00;99841.56;5033624;28;20072;-59
2023/02/02 02:10:46;;;;;;;31.00;7.53;;;;;;;5.49;100.00;99844.81;5066213;28;20495;-59
2023/02/02 02:13:12;;;;;;;24.33;7.40;;;;;;;5.41;100.00;99838.63;5040212;28;20112;-59
2023/02/02 02:19:23;;;;;;;23.95;6.57;;;;;;;5.41;100.00;99843.13;5036355;28;20514;-59
2023/02/02 02:27:43;;;;;;;19.00;7.00;;;;;;;5.47;100.00;99853.00;5043985;28;20544;-59
2023/02/02 02:30:23;;;;;;;19.27;7.22;;;;;;;5.50;100.00;99851.81;5036409;28;20044;-59
2023/02/02 02:32:48;;;;;;;23.73;6.95;;;;;;;5.44;100.00;99863.19;5026448;28;20021;-59
2023/02/02 02:35:28;;;;;;;19.20;6.82;;;;;;;5.38;100.00;99851.50;5037615;28;20636;-59
2023/02/02 02:38:15;;;;;;;23.85;6.90;;;;;;;5.41;100.00;99857.25;5047234;28;20065;-59
2023/02/02 02:40:44;;;;;;;30.75;7.30;;;;;;;5.40;100.00;99858.28;5031900;28;20033;-59
2023/02/02 02:43:14;;;;;;;26.10;7.80;;;;;;;5.38;100.00;99852.31;5061054;28;20040;-59
2023/02/02 02:45:39;;;;;;;22.77;6.90;;;;;;;5.37;100.00;99857.84;5044798;28;20388;-59
2023/02/02 02:48:05;;;;;;;16.17;6.35;;;;;;;5.42;100.00;99850.13;5042859;28;20033;-59
2023/02/02 02:50:31;;;;;;;17.17;6.50;;;;;;;5.37;100.00;99850.69;5018736;28;20029;-59
2023/02/02 02:53:03;;;;;;;19.33;6.38;;;;;;;5.41;100.00;99861.75;5045626;28;20024;-59
2023/02/02 02:55:32;;;;;;;22.20;6.10;;;;;;;5.43;100.00;99853.59;5027873;28;20476;-59
2023/02/02 02:58:12;;;;;;;22.27;7.07;;;;;;;5.42;100.00;99860.75;5022345;28;20034;-59
2023/02/02 03:01:07;;;;;;;40.47;7.55;;;;;;;5.37;100.00;99849.88;5036933;28;20115;-59
2023/02/02 03:03:59;;;;;;;22.45;7.13;;;;;;;5.32;100.00;99854.94;5038803;28;20041;-60
2023/02/02 03:06:47;;;;;;;24.35;6.57;;;;;;;5.29;100.00;99860.63;5016611;28;20033;-59
2023/02/02 03:09:16;;;;;;;20.83;6.68;;;;;;;5.37;100.00;99863.97;5035858;28;20734;-60
2023/02/02 03:11:41;;;;;;;29.05;6.22;;;;;;;5.36;100.00;99864.97;5021900;28;20025;-59
2023/02/02 03:14:08;;;;;;;22.13;7.00;;;;;;;5.27;100.00;99868.81;5041331;28;20040;-58
2023/02/02 03:16:37;;;;;;;18.67;6.68;;;;;;;5.28;100.00;99862.47;5044895;28;20028;-60
2023/02/02 03:19:03;;;;;;;25.48;7.72;;;;;;;5.26;100.00;99853.84;5035001;28;20546;-60
2023/02/02 03:21:29;;;;;;;25.35;6.90;;;;;;;5.19;100.00;99845.00;5034791;28;20059;-61
2023/02/02 03:23:55;;;;;;;25.38;7.43;;;;;;;5.11;100.00;99847.81;5043068;28;20248;-58
2023/02/02 03:26:20;;;;;;;16.48;6.13;;;;;;;5.19;100.00;99834.38;5040602;28;20068;-58
2023/02/02 03:28:46;;;;;;;22.02;6.80;;;;;;;5.17;100.00;99828.47;5030660;28;20025;-60
2023/02/02 03:31:11;;;;;;;18.02;6.03;;;;;;;5.22;100.00;99830.50;5034799;28;20025;-58
2023/02/02 03:33:37;;;;;;;21.70;6.55;;;;;;;5.23;100.00;99840.16;5030086;28;20017;-58
2023/02/02 03:36:03;;;;;;;21.70;6.13;;;;;;;5.22;100.00;99836.66;5043955;28;20029;-59
2023/02/02 03:38:28;;;;;;;20.42;6.20;;;;;;;5.21;100.00;99844.81;5039268;28;20029;-61
2023/02/02 03:40:53;;;;;;;19.63;6.75;;;;;;;5.20;100.00;99838.69;5044813;28;20028;-59
2023/02/02 03:43:22;;;;;;;16.90;6.32;;;;;;;5.15;100.00;99843.78;5048739;28;20671;-60
2023/02/02 03:45:53;;;;;;;19.17;6.30;;;;;;;5.15;100.00;99843.78;5042688;28;20053;-60
2023/02/02 03:48:19;;;;;;;19.77;6.55;;;;;;;5.21;100.00;99848.31;5041366;28;20186;-60
2023/02/02 03:50:44;;;;;;;20.90;6.88;;;;;;;5.15;100.00;99844.59;5044114;28;20454;-59
2023/02/02 03:53:10;;;;;;;21.40;6.35;;;;;;;5.16;100.00;99848.88;5044839;28;20036;-59
2023/02/02 03:55:37;;;;;;;17.52;5.70;;;;;;;5.18;100.00;99854.00;5044588;28;20029;-59
2023/02/02 03:58:02;;;;;;;19.02;5.40;;;;;;;5.14;100.00;99852.72;5040688;28;20116;-59
2023/02/02 04:00:28;;;;;;;16.25;5.72;;;;;;;5.14;100.00;99850.94;5040224;28;20067;-59
2023/02/02 04:02:53;;;;;;;19.33;5.72;;;;;;;5.09;100.00;99860.47;5047605;28;20036;-60
2023/02/02 04:05:19;;;;;;;12.80;5.20;;;;;;;5.13;100.00;99857.22;5038998;28;20040;-59
2023/02/02 04:07:44;;;;;;;21.65;6.03;;;;;;;5.07;100.00;99860.66;5043107;28;20022;-58
2023/02/02 04:10:10;;;;;;;25.17;5.43;;;;;;;5.17;100.00;99860.34;5042610;28;20368;-59
2023/02/02 04:12:35;;;;;;;17.30;5.93;;;;;;;5.10;100.00;99862.13;5036850;28;20622;-60
2023/02/02 04:15:01;;;;;;;19.52;6.22;;;;;;;5.09;100.00;99868.44;5037684;28;20026;-59
2023/02/02 04:17:26;;;;;;;19.67;5.78;;;;;;;5.05;100.00;99859.22;5037755;28;20039;-59
2023/02/02 04:19:56;;;;;;;20.90;6.00;;;;;;;5.11;100.00;99869.06;5043732;28;20032;-59
2023/02/02 04:22:22;;;;;;;20.17;5.15;;;;;;;5.14;100.00;99858.03;5038894;28;20024;-59
2023/02/02 04:24:47;;;;;;;29.23;5.43;;;;;;;5.06;100.00;99871.47;5037227;28;20116;-59
2023/02/02 04:27:13;;;;;;;25.33;5.40;;;;;;;5.06;100.00;99869.63;5042136;28;20387;-59
2023/02/02 04:29:38;;;;;;;19.35;5.75;;;;;;;5.09;100.00;99868.44;5047282;28;20024;-59
2023/02/02 04:32:04;;;;;;;39.65;6.50;;;;;;;5.11;100.00;99853.94;5041151;28;20029;-59
2023/02/02 04:34:29;;;;;;;24.65;5.55;;;;;;;5.15;100.00;99865.03;5040589;28;20040;-59
2023/02/02 04:36:55;;;;;;;25.85;5.68;;;;;;;5.24;100.00;99852.41;5041876;28;20040;-59
2023/02/02 04:39:20;;;;;;;22.77;5.93;;;;;;;5.29;100.00;99865.94;5039953;28;20024;-59
2023/02/02 04:41:46;;;;;;;27.05;5.30;;;;;;;5.34;100.00;99863.53;5037343;28;20029;-59
2023/02/02 04:44:13;;;;;;;26.17;5.40;;;;;;;5.26;100.00;99871.66;5040176;28;20028;-59
2023/02/02 04:46:39;;;;;;;20.42;5.40;;;;;;;5.27;100.00;99879.44;5039358;28;20403;-59
2023/02/02 04:49:05;;;;;;;18.35;5.68;;;;;;;5.31;100.00;99880.69;5036211;28;20191;-59
2023/02/02 04:51:30;;;;;;;17.38;4.93;;;;;;;5.26;100.00;99877.78;5036304;28;20025;-59
2023/02/02 04:53:55;;;;;;;30.13;5.60;;;;;;;5.32;100.00;99879.69;5036687;28;20025;-59
2023/02/02 04:56:21;;;;;;;23.17;5.80;;;;;;;5.30;100.00;99872.91;5041136;28;20086;-59
2023/02/02 04:58:46;;;;;;;16.05;5.65;;;;;;;5.28;100.00;99885.56;5042814;28;20100;-59
2023/02/02 05:01:14;;;;;;;20.73;5.57;;;;;;;5.34;100.00;99888.28;5045613;28;20368;-59
2023/02/02 05:03:39;;;;;;;26.20;5.55;;;;;;;5.30;100.00;99892.34;5039705;28;20440;-59
2023/02/02 05:06:05;;;;;;;28.95;6.30;;;;;;;5.27;100.00;99884.75;5040873;28;20017;-60
2023/02/02 05:08:30;;;;;;;23.85;5.72;;;;;;;5.32;100.00;99897.47;5045169;28;20491;-59
2023/02/02 05:10:56;;;;;;;26.40;5.68;;;;;;;5.24;100.00;99905.56;5036398;28;20037;-59
2023/02/02 05:13:21;;;;;;;23.42;5.35;;;;;;;5.26;100.00;99896.38;5046962;28;20522;-59
2023/02/02 05:15:47;;;;;;;18.63;5.43;;;;;;;5.26;100.00;99904.34;5040091;28;20246;-59
2023/02/02 05:18:12;;;;;;;24.73;5.93;;;;;;;5.29;100.00;99909.31;5043656;28;20045;-59
2023/02/02 05:20:38;;;;;;;22.23;5.93;;;;;;;5.34;100.00;99911.38;5048804;28;20032;-59
2023/02/02 05:23:03;;;;;;;21.17;5.97;;;;;;;5.30;100.00;99916.25;5032687;28;20110;-59
2023/02/02 05:25:28;;;;;;;26.85;5.97;;;;;;;5.27;100.00;99906.03;5050000;28;20569;-59
2023/02/02 05:27:54;;;;;;;14.80;5.93;;;;;;;5.25;100.00;99917.84;5042553;28;20028;-59
2023/02/02 05:30:19;;;;;;;25.88;5.85;;;;;;;5.34;100.00;99914.88;5048348;28;20063;-59
2023/02/02 05:32:45;;;;;;;15.43;5.88;;;;;;;5.29;100.00;99909.31;5042385;28;20468;-59
2023/02/02 05:35:10;;;;;;;22.15;5.75;;;;;;;5.30;100.00;99913.59;5048232;28;20556;-59
2023/02/02 05:37:36;;;;;;;26.67;5.35;;;;;;;5.30;100.00;99900.31;5074705;28;20021;-59
2023/02/02 05:40:02;;;;;;;25.40;5.97;;;;;;;5.36;100.00;99904.84;5038648;28;20029;-59
2023/02/02 05:42:27;;;;;;;24.48;5.28;;;;;;;5.35;100.00;99900.56;5043311;28;20044;-59
2023/02/02 05:44:53;;;;;;;17.73;4.80;;;;;;;5.32;100.00;99924.88;5042743;28;20047;-59
2023/02/02 05:47:18;;;;;;;16.25;5.15;;;;;;;5.36;100.00;99923.47;5045806;28;20033;-59
2023/02/02 05:49:44;;;;;;;25.67;5.72;;;;;;;5.37;100.00;99932.28;5047186;28;20099;-59
2023/02/02 05:52:14;;;;;;;22.35;5.45;;;;;;;5.37;100.00;99927.78;5046493;28;20033;-59
2023/02/02 05:54:39;;;;;;;18.27;5.65;;;;;;;5.32;100.00;99935.50;5042340;28;20032;-59
2023/02/02 05:57:05;;;;;;;22.00;5.95;;;;;;;5.36;100.00;99939.41;5052463;28;20025;-59
2023/02/02 05:59:30;;;;;;;20.55;6.13;;;;;;;5.35;100.00;99944.94;5044933;28;20021;-59
2023/02/02 06:01:56;;;;;;;18.23;4.95;;;;;;;5.30;100.00;99940.19;5040744;28;20090;-58
2023/02/02 06:04:21;;;;;;;21.50;5.43;;;;;;;5.30;100.00;99937.53;5045716;28;20032;-59
2023/02/02 06:06:47;;;;;;;20.92;5.85;;;;;;;5.28;100.00;99950.19;5040649;28;20049;-59
2023/02/02 06:09:12;;;;;;;17.90;5.97;;;;;;;5.30;100.00;99948.16;5042316;28;20927;-58
2023/02/02 06:11:42;;;;;;;32.20;6.45;;;;;;;5.31;100.00;99933.84;5045600;28;20028;-59
2023/02/02 06:14:07;;;;;;;25.77;6.43;;;;;;;5.29;100.00;99935.91;5044528;28;20154;-59
2023/02/02 06:16:33;;;;;;;23.33;6.50;;;;;;;5.28;100.00;99928.09;5044462;28;20029;-59
2023/02/02 06:18:58;;;;;;;22.35;7.22;;;;;;;5.35;100.00;99940.44;5040961;28;20491;-58
2023/02/02 06:21:24;;;;;;;229.85;70.53;;;;;;;5.32;100.00;99938.16;5044128;28;20740;-59
2023/02/02 06:23:50;;;;;;;62.58;29.27;;;;;;;5.35;100.00;99927.16;5037373;28;20116;-60
2023/02/02 06:26:15;;;;;;;25.75;9.43;;;;;;;5.35;100.00;99935.13;5035593;28;20122;-59
2023/02/02 06:28:41;;;;;;;35.30;19.02;;;;;;;5.29;100.00;99927.91;5036872;28;20141;-59
2023/02/02 06:31:08;;;;;;;34.92;15.70;;;;;;;5.32;100.00;99924.88;5040264;28;20040;-58
2023/02/02 06:33:33;;;;;;;26.23;12.65;;;;;;;5.30;100.00;99932.22;5044259;28;20057;-59
2023/02/02 06:36:03;;;;;;;33.30;9.80;;;;;;;5.26;100.00;99930.13;5040326;28;20546;-59
2023/02/02 06:38:28;;;;;;;25.95;8.38;;;;;;;5.31;100.00;99941.81;5035642;28;20025;-59
2023/02/02 06:40:54;;;;;;;24.05;8.02;;;;;;;5.37;100.00;99938.41;5041663;28;20079;-58
2023/02/02 06:43:19;;;;;;;23.55;8.35;;;;;;;5.33;100.00;99947.78;5040671;28;20033;-57
2023/02/02 06:45:45;;;;;;;39.20;13.73;;;;;;;5.29;100.00;99946.53;5042363;28;20025;-59
2023/02/02 06:48:10;;;;;;;37.22;11.23;;;;;;;5.29;100.00;99951.84;5041529;28;20033;-58
2023/02/02 06:50:37;;;;;;;26.38;8.55;;;;;;;5.24;100.00;99956.06;5040495;28;20021;-59
2023/02/02 06:53:02;;;;;;;26.83;10.25;;;;;;;5.16;100.00;99954.34;5043363;28;20032;-59
2023/02/02 06:55:28;;;;;;;33.30;14.32;;;;;;;5.14;100.00;99959.88;5045265;28;20690;-59
2023/02/02 06:57:57;;;;;;;34.58;16.95;;;;;;;5.11;100.00;99954.09;5038516;28;20029;-59
2023/02/02 07:00:22;;;;;;;51.88;19.90;;;;;;;5.13;100.00;99965.38;5067294;28;20024;-59
2023/02/02 07:02:48;;;;;;;40.03;20.38;;;;;;;5.09;100.00;99961.44;5035150;28;20017;-59
2023/02/02 07:05:18;;;;;;;31.58;15.10;;;;;;;5.09;100.00;99974.72;5039893;28;20025;-59
2023/02/02 07:07:44;;;;;;;60.25;25.55;;;;;;;5.09;100.00;99977.38;5046386;28;20060;-59
2023/02/02 07:10:09;;;;;;;35.42;16.20;;;;;;;5.08;100.00;99983.72;5032941;28;20083;-59
2023/02/02 07:12:35;;;;;;;60.08;31.67;;;;;;;5.10;100.00;99977.19;5047280;28;20090;-59
2023/02/02 07:15:00;;;;;;;47.03;23.83;;;;;;;5.05;100.00;99976.13;5075142;28;20026;-59
2023/02/02 07:17:26;;;;;;;46.55;22.95;;;;;;;5.04;100.00;99974.47;5037845;28;20017;-59
2023/02/02 07:19:52;;;;;;;65.55;26.15;;;;;;;4.94;100.00;99964.13;5054165;28;20104;-59
2023/02/02 07:22:17;;;;;;;40.15;16.05;;;;;;;5.03;100.00;99970.16;5046611;28;20384;-59
2023/02/02 07:24:42;;;;;;;53.70;23.73;;;;;;;5.06;100.00;99967.13;5043599;28;20028;-59
2023/02/02 07:27:08;;;;;;;44.13;12.75;;;;;;;5.13;100.00;99981.31;5040197;28;20032;-59
2023/02/02 07:29:33;;;;;;;51.20;21.05;;;;;;;4.98;100.00;99978.69;5039960;28;20017;-59
2023/02/02 07:31:59;;;;;;;49.15;18.88;;;;;;;4.94;100.00;99983.56;5034024;28;20427;-59
2023/02/02 07:34:24;;;;;;;76.47;34.33;;;;;;;5.01;100.00;99996.09;5045634;28;20024;-59
2023/02/02 07:36:50;;;;;;;65.00;23.95;;;;;;;5.01;100.00;99996.09;5042435;28;20418;-59
2023/02/02 07:39:15;;;;;;;50.28;23.75;;;;;;;5.04;100.00;99982.44;5049672;28;20026;-59
2023/02/02 07:41:42;;;;;;;38.67;13.50;;;;;;;5.02;100.00;99990.59;5034017;28;20041;-60
2023/02/02 07:44:11;;;;;;;39.35;12.00;;;;;;;5.02;100.00;99997.72;5044734;28;20029;-59
2023/02/02 07:46:36;;;;;;;49.00;14.75;;;;;;;5.06;100.00;99996.34;5025435;28;20037;-59
2023/02/02 07:49:02;;;;;;;61.60;18.85;;;;;;;5.00;100.00;99995.28;5041925;28;20041;-59
2023/02/02 07:51:27;;;;;;;40.97;12.48;;;;;;;5.06;100.00;99993.69;5043429;28;20028;-59
2023/02/02 07:53:53;;;;;;;27.25;9.48;;;;;;;5.07;100.00;99990.06;5037089;28;20040;-59
2023/02/02 07:56:19;;;;;;;85.65;24.45;;;;;;;5.19;100.00;99984.06;5044082;28;20043;-59
2023/02/02 07:58:45;;;;;;;62.95;18.35;;;;;;;5.27;100.00;99988.41;5044791;28;20095;-59
2023/02/02 08:01:11;;;;;;;132.25;35.97;;;;;;;5.26;100.00;99988.59;5036943;28;20032;-59
2023/02/02 08:03:37;;;;;;;90.82;24.40;;;;;;;5.31;100.00;99987.00;5043352;28;20448;-59
2023/02/02 08:06:13;;;;;;;110.05;27.98;;;;;;;5.31;100.00;99997.63;5046792;28;20070;-59
2023/02/02 08:08:39;;;;;;;86.13;23.77;;;;;;;5.30;100.00;99990.69;5037240;28;20434;-60
2023/02/02 08:11:07;;;;;;;74.80;23.70;;;;;;;5.37;100.00;99990.75;5034518;28;20441;-60
2023/02/02 08:13:35;;;;;;;107.88;26.63;;;;;;;5.44;100.00;99990.81;5042439;28;20036;-60
2023/02/02 08:16:01;;;;;;;60.17;20.15;;;;;;;5.56;100.00;99997.25;5043404;28;20338;-60
2023/02/02 08:18:26;;;;;;;41.97;15.63;;;;;;;5.63;100.00;100006.13;5045271;28;20036;-60
2023/02/02 08:20:52;;;;;;;68.07;22.33;;;;;;;5.59;100.00;100003.03;5047902;28;20026;-58
2023/02/02 08:23:22;;;;;;;46.35;17.00;;;;;;;5.57;100.00;100004.25;5035515;28;20389;-59
2023/02/02 08:25:51;;;;;;;62.60;19.50;;;;;;;5.61;100.00;100006.31;5046927;28;20518;-60
2023/02/02 08:28:17;;;;;;;38.20;14.52;;;;;;;5.58;100.00;100003.22;5043829;28;20040;-61
2023/02/02 08:30:42;;;;;;;41.08;14.82;;;;;;;5.62;100.00;100012.47;5038831;28;20041;-61
2023/02/02 08:33:08;;;;;;;24.05;7.53;;;;;;;5.66;100.00;100004.91;5041168;28;20033;-60
2023/02/02 08:35:33;;;;;;;26.30;8.80;;;;;;;5.63;100.00;100011.44;5042855;28;20034;-59
2023/02/02 08:38:01;;;;;;;22.98;9.82;;;;;;;5.74;100.00;100010.94;5040318;28;20022;-61
2023/02/02 08:40:27;;;;;;;38.05;8.50;;;;;;;5.78;100.00;100008.72;5053499;28;20071;-60
2023/02/02 08:42:53;;;;;;;16.92;5.72;;;;;;;5.84;100.00;100008.78;5043471;28;20565;-60
2023/02/02 08:45:19;;;;;;;26.13;6.03;;;;;;;5.79;100.00;100011.19;5043311;28;20116;-60
2023/02/02 08:47:45;;;;;;;24.10;6.72;;;;;;;5.83;100.00;100008.97;5041223;28;20155;-60
2023/02/02 08:50:10;;;;;;;23.70;6.30;;;;;;;5.76;100.00;100011.56;5040290;28;20033;-60
2023/02/02 08:52:35;;;;;;;263.92;62.50;;;;;;;5.80;100.00;100018.16;5041122;28;20026;-59
2023/02/02 08:55:01;;;;;;;126.43;51.58;;;;;;;5.79;100.00;100026.31;5041256;28;20017;-61
2023/02/02 08:57:27;;;;;;;52.20;27.33;;;;;;;5.77;100.00;100028.38;5034543;28;20044;-60
2023/02/02 08:59:52;;;;;;;31.58;10.07;;;;;;;5.73;100.00;100033.22;5039034;28;20044;-60
2023/02/02 09:02:18;;;;;;;40.42;17.95;;;;;;;5.79;100.00;100037.78;5037058;28;20036;-59
2023/02/02 09:04:45;;;;;;;31.30;13.82;;;;;;;5.75;100.00;100041.84;5048991;28;20032;-59
2023/02/02 09:07:11;;;;;;;24.35;8.52;;;;;;;5.75;100.00;100039.19;5044562;28;20060;-60
2023/02/02 09:09:36;;;;;;;86.32;32.22;;;;;;;5.71;100.00;100045.06;5042124;28;20040;-59
2023/02/02 09:12:02;;;;;;;27.58;12.48;;;;;;;5.78;100.00;100045.97;5038492;28;20026;-58
2023/02/02 09:14:27;;;;;;;34.20;12.25;;;;;;;5.79;100.00;100048.44;5048668;28;20070;-59
2023/02/02 09:16:52;;;;;;;26.75;10.60;;;;;;;5.83;100.00;100039.03;5045490;28;20036;-59
2023/02/02 09:19:18;;;;;;;20.08;10.05;;;;;;;5.80;100.00;100034.09;5040485;28;20044;-59
2023/02/02 09:21:43;;;;;;;32.45;16.48;;;;;;;5.77;100.00;100042.47;5050785;28;20029;-59
2023/02/02 09:24:10;;;;;;;39.70;14.75;;;;;;;5.86;100.00;100048.47;5045392;28;20372;-59
2023/02/02 09:26:37;;;;;;;37.35;19.50;;;;;;;5.90;100.00;100044.44;5045990;28;20044;-59
2023/02/02 09:29:04;;;;;;;34.28;17.35;;;;;;;5.94;100.00;100051.06;5041929;28;20748;-59
2023/02/02 09:31:31;;;;;;;32.65;18.92;;;;;;;5.91;100.00;100051.38;5045515;28;20028;-59
2023/02/02 09:34:04;;;;;;;23.33;9.57;;;;;;;5.94;100.00;100052.88;5037708;28;20025;-60
2023/02/02 09:36:32;;;;;;;36.60;22.17;;;;;;;6.01;100.00;100061.72;5040984;28;20543;-60
2023/02/02 09:38:58;;;;;;;24.85;9.95;;;;;;;6.03;100.00;100059.72;5072856;28;20027;-59
2023/02/02 09:41:35;;;;;;;31.00;14.38;;;;;;;6.12;100.00;100053.22;5040088;28;20025;-60
2023/02/02 09:44:34;;;;;;;26.88;7.88;;;;;;;6.20;100.00;100063.72;5038387;28;20021;-59
2023/02/02 09:47:09;;;;;;;21.23;9.13;;;;;;;6.19;100.00;100067.41;5049573;28;20040;-60
2023/02/02 09:49:55;;;;;;;18.17;7.47;;;;;;;6.22;100.00;100071.53;5039125;28;20141;-61
2023/02/02 09:52:27;;;;;;;26.27;11.35;;;;;;;6.24;100.00;100075.66;5034949;28;20116;-62
2023/02/02 09:54:59;;;;;;;32.35;12.00;;;;;;;6.19;100.00;100075.41;5043344;28;20014;-60
2023/02/02 09:57:32;;;;;;;47.10;23.10;;;;;;;6.26;100.00;100076.28;5034743;28;20021;-59
2023/02/02 09:59:57;;;;;;;37.97;16.58;;;;;;;6.32;100.00;100074.69;5029192;28;20039;-60
2023/02/02 10:02:29;;;;;;;18.40;6.05;;;;;;;6.33;100.00;100072.84;5053503;28;20021;-59
2023/02/02 10:04:59;;;;;;;16.58;5.18;;;;;;;6.43;100.00;100075.97;5053722;28;20032;-59
2023/02/02 10:07:33;;;;;;;27.02;10.70;;;;;;;6.46;100.00;100081.75;5037439;28;20033;-60
2023/02/02 10:10:03;;;;;;;15.07;7.20;;;;;;;6.46;100.00;100080.91;5036186;28;20036;-60
2023/02/02 10:12:35;;;;;;;22.50;7.13;;;;;;;6.49;100.00;100091.19;5034171;28;20076;-60
2023/02/02 10:15:11;;;;;;;9.95;5.05;;;;;;;6.59;100.00;100096.16;5028556;28;20029;-59
2023/02/02 10:18:03;;;;;;;19.55;5.00;;;;;;;6.53;99.62;100092.44;5043923;28;20029;-58
2023/02/02 10:20:49;;;;;;;18.50;4.85;;;;;;;6.63;98.95;100100.06;5043428;28;20036;-58
2023/02/02 10:23:41;;;;;;;12.20;5.50;;;;;;;6.71;99.25;100102.56;5045145;28;20088;-59
2023/02/02 10:26:15;;;;;;;20.98;7.25;;;;;;;6.90;98.13;100095.72;5077648;28;20036;-61
2023/02/02 10:29:07;;;;;;;12.30;4.60;;;;;;;6.83;97.00;100102.84;5045189;28;20037;-60
2023/02/02 10:32:01;;;;;;;11.02;3.17;;;;;;;6.80;96.96;100106.75;5046884;28;20615;-60
2023/02/02 10:35:04;;;;;;;9.73;3.83;;;;;;;6.74;98.29;100109.34;5037715;28;20399;-60
2023/02/02 10:37:37;;;;;;;8.65;3.67;;;;;;;6.68;97.67;100117.13;5039319;28;20064;-59
2023/02/02 10:40:21;;;;;;;10.63;3.00;;;;;;;6.68;97.85;100116.28;5044133;28;20379;-59
2023/02/02 10:45:36;;;;;;;5.45;3.17;;;;;;;6.79;97.90;100113.09;5047568;28;20124;-59
2023/02/02 10:48:03;;;;;;;6.07;2.92;;;;;;;6.82;97.00;100106.56;5029318;28;20029;-58
2023/02/02 10:50:28;;;;;;;9.15;3.00;;;;;;;6.84;97.05;100110.66;5042749;28;20021;-59
2023/02/02 10:52:55;;;;;;;10.18;2.85;;;;;;;6.81;96.76;100104.88;5042000;28;20033;-60
2023/02/02 10:55:24;;;;;;;10.18;3.30;;;;;;;6.82;97.07;100109.22;5064432;28;20035;-61
2023/02/02 10:58:13;;;;;;;10.05;3.00;;;;;;;6.84;97.16;100115.16;5043080;28;20487;-60
2023/02/02 11:00:45;;;;;;;8.05;2.53;;;;;;;6.88;97.59;100105.75;5054708;28;20522;-60
2023/02/02 11:03:20;;;;;;;13.02;2.72;;;;;;;6.95;97.37;100100.47;5045366;28;20037;-61
2023/02/02 11:08:38;;;;;;;11.32;3.10;;;;;;;7.05;95.62;100101.75;5044300;28;20605;-60
2023/02/02 11:11:20;;;;;;;8.30;2.90;;;;;;;7.12;95.91;100105.25;5054401;28;20029;-60
2023/02/02 11:13:53;;;;;;;6.78;2.45;;;;;;;7.10;95.67;100115.31;5058943;28;20458;-60
2023/02/02 11:16:22;;;;;;;6.18;2.60;;;;;;;7.18;96.14;100095.66;5045528;28;20406;-60
2023/02/02 11:18:47;;;;;;;5.70;2.60;;;;;;;7.31;94.78;100105.53;5050655;28;20029;-60
2023/02/02 11:21:27;;;;;;;8.75;2.80;;;;;;;7.38;94.98;100101.06;5049871;28;20029;-58
2023/02/02 11:24:00;;;;;;;7.53;2.55;;;;;;;7.55;93.99;100105.00;5043830;28;20049;-60
2023/02/02 11:26:26;;;;;;;7.15;2.65;;;;;;;7.55;94.27;100113.00;5068824;28;20025;-60
2023/02/02 11:28:52;;;;;;;5.53;2.40;;;;;;;7.49;93.43;100092.47;5038653;28;20395;-60
2023/02/02 11:31:32;;;;;;;6.60;2.30;;;;;;;7.45;93.88;100109.91;5043542;28;20229;-59
2023/02/02 11:34:17;;;;;;;6.00;2.47;;;;;;;7.51;94.00;100111.78;5045042;28;20028;-59
2023/02/02 11:37:02;;;;;;;5.53;2.75;;;;;;;7.50;94.60;100109.31;5040670;28;20475;-59
2023/02/02 11:39:27;;;;;;;7.22;2.80;;;;;;;7.51;94.29;100101.13;5047616;28;20024;-60
2023/02/02 11:42:00;;;;;;;6.25;2.42;;;;;;;7.45;93.94;100101.91;5040370;28;20075;-59
2023/02/02 11:44:27;;;;;;;6.30;2.42;;;;;;;7.46;93.74;100095.56;5035277;28;20490;-60